createdAt,value
2018-03-06T00:00:48.162Z,82.93
2018-03-06T00:01:48.159Z,82.84
2018-03-06T00:02:48.159Z,83.12
2018-03-06T00:03:48.184Z,83.12
2018-03-06T00:04:48.163Z,83.08
2018-03-06T00:05:48.215Z,83.08
2018-03-06T00:06:48.178Z,83.08
2018-03-06T00:07:48.178Z,82.98
2018-03-06T00:08:48.183Z,83.27
2018-03-06T00:09:48.187Z,83.12
2018-03-06T00:10:48.187Z,82.98
2018-03-06T00:11:48.186Z,82.70
2018-03-06T00:12:48.210Z,82.79
2018-03-06T00:13:48.205Z,82.84
2018-03-06T00:14:48.203Z,82.89
2018-03-06T00:15:48.213Z,83.17
2018-03-06T00:16:48.312Z,82.36
2018-03-06T00:17:48.201Z,82.89
2018-03-06T00:18:48.234Z,82.23
2018-03-06T00:19:48.316Z,82.42
2018-03-06T00:20:48.224Z,82.42
2018-03-06T00:21:48.211Z,82.42
2018-03-06T00:22:48.254Z,82.60
2018-03-06T00:23:48.250Z,82.23
2018-03-06T00:24:48.217Z,81.94
2018-03-06T00:25:48.210Z,81.56
2018-03-06T00:26:48.755Z,80.90
2018-03-06T00:27:48.221Z,81.27
2018-03-06T00:28:48.220Z,81.09
2018-03-06T00:29:48.220Z,81.18
2018-03-06T00:30:48.218Z,81.66
2018-03-06T00:31:48.221Z,81.47
2018-03-06T00:32:48.222Z,81.56
2018-03-06T00:33:48.232Z,81.94
2018-03-06T00:34:48.233Z,82.23
2018-03-06T00:35:48.230Z,81.85
2018-03-06T00:36:48.236Z,82.04
2018-03-06T00:37:48.231Z,81.75
2018-03-06T00:38:48.248Z,82.42
2018-03-06T00:39:48.247Z,81.94
2018-03-06T00:40:48.252Z,82.23
2018-03-06T00:41:48.243Z,81.66
2018-03-06T00:42:48.264Z,82.13
2018-03-06T00:43:48.257Z,81.94
2018-03-06T00:44:48.267Z,81.75
2018-03-06T00:45:48.247Z,81.56
2018-03-06T00:46:48.257Z,81.66
2018-03-06T00:47:48.282Z,81.75
2018-03-06T00:48:48.258Z,81.66
2018-03-06T00:49:48.263Z,81.56
2018-03-06T00:50:48.265Z,81.75
2018-03-06T00:51:48.257Z,81.56
2018-03-06T00:52:48.261Z,81.56
2018-03-06T00:53:48.277Z,81.47
2018-03-06T00:54:48.263Z,81.66
2018-03-06T00:55:48.275Z,81.47
2018-03-06T00:56:48.275Z,81.66
2018-03-06T00:57:48.286Z,81.94
2018-03-06T00:58:48.279Z,81.85
2018-03-06T00:59:48.279Z,81.75
2018-03-06T01:00:48.278Z,82.04
2018-03-06T01:01:48.285Z,81.85
2018-03-06T01:02:48.292Z,81.56
2018-03-06T01:03:48.289Z,81.56
2018-03-06T01:04:48.292Z,81.75
2018-03-06T01:05:48.297Z,81.18
2018-03-06T01:06:48.318Z,81.27
2018-03-06T01:07:48.297Z,81.27
2018-03-06T01:08:48.294Z,81.18
2018-03-06T01:09:48.312Z,81.56
2018-03-06T01:10:48.296Z,81.66
2018-03-06T01:11:48.300Z,82.23
2018-03-06T01:12:48.300Z,82.32
2018-03-06T01:13:48.308Z,82.60
2018-03-06T01:14:48.316Z,82.32
2018-03-06T01:15:48.307Z,82.28
2018-03-06T01:16:50.097Z,82.60
2018-03-06T01:17:50.064Z,82.23
2018-03-06T01:18:48.318Z,82.42
2018-03-06T01:19:48.337Z,82.23
2018-03-06T01:20:48.325Z,81.85
2018-03-06T01:21:48.323Z,82.13
2018-03-06T01:22:48.356Z,82.09
2018-03-06T01:23:48.331Z,81.90
2018-03-06T01:24:48.324Z,82.42
2018-03-06T01:25:48.334Z,82.32
2018-03-06T01:26:48.332Z,82.09
2018-03-06T01:27:48.338Z,82.37
2018-03-06T01:28:48.345Z,82.56
2018-03-06T01:29:48.346Z,83.13
2018-03-06T01:30:48.340Z,82.66
2018-03-06T01:31:48.340Z,82.85
2018-03-06T01:32:48.353Z,82.94
2018-03-06T01:33:48.339Z,82.75
2018-03-06T01:34:48.363Z,82.94
2018-03-06T01:35:48.348Z,82.85
2018-03-06T01:36:48.351Z,82.66
2018-03-06T01:37:48.350Z,82.66
2018-03-06T01:38:48.366Z,82.56
2018-03-06T01:39:48.366Z,83.13
2018-03-06T01:40:48.376Z,82.75
2018-03-06T01:41:48.367Z,82.85
2018-03-06T01:42:48.379Z,83.04
2018-03-06T01:43:48.378Z,82.94
2018-03-06T01:44:48.366Z,82.56
2018-03-06T01:45:48.361Z,82.94
2018-03-06T01:46:48.370Z,82.75
2018-03-06T01:47:48.371Z,82.85
2018-03-06T01:48:48.371Z,82.85
2018-03-06T01:49:48.376Z,82.66
2018-03-06T01:50:48.379Z,82.85
2018-03-06T01:51:48.373Z,83.04
2018-03-06T01:52:48.381Z,83.13
2018-03-06T01:53:48.437Z,83.70
2018-03-06T01:54:48.380Z,83.51
2018-03-06T01:55:48.378Z,83.32
2018-03-06T01:56:48.385Z,83.42
2018-03-06T01:57:48.396Z,83.80
2018-03-06T01:58:48.380Z,83.23
2018-03-06T01:59:48.392Z,83.42
2018-03-06T02:00:48.393Z,83.61
2018-03-06T02:01:48.505Z,83.70
2018-03-06T02:02:48.404Z,83.70
2018-03-06T02:03:48.400Z,83.70
2018-03-06T02:04:48.407Z,83.32
2018-03-06T02:05:48.398Z,83.70
2018-03-06T02:06:48.403Z,83.13
2018-03-06T02:07:48.403Z,83.13
2018-03-06T02:08:48.413Z,83.32
2018-03-06T02:09:48.405Z,83.23
2018-03-06T02:10:48.408Z,83.32
2018-03-06T02:11:48.408Z,83.42
2018-03-06T02:12:48.411Z,83.32
2018-03-06T02:13:48.424Z,83.04
2018-03-06T02:14:48.409Z,83.04
2018-03-06T02:15:48.415Z,83.32
2018-03-06T02:16:48.413Z,83.04
2018-03-06T02:17:48.422Z,83.13
2018-03-06T02:18:48.423Z,83.04
2018-03-06T02:19:48.426Z,82.94
2018-03-06T02:20:48.433Z,83.70
2018-03-06T02:21:48.442Z,83.32
2018-03-06T02:22:48.440Z,83.32
2018-03-06T02:23:48.435Z,83.32
2018-03-06T02:24:48.432Z,83.23
2018-03-06T02:25:48.440Z,83.70
2018-03-06T02:26:48.437Z,83.23
2018-03-06T02:27:48.439Z,83.04
2018-03-06T02:28:48.439Z,83.32
2018-03-06T02:29:48.442Z,83.42
2018-03-06T02:30:48.434Z,83.23
2018-03-06T02:31:48.446Z,83.42
2018-03-06T02:32:48.442Z,83.32
2018-03-06T02:33:48.442Z,83.13
2018-03-06T02:34:48.441Z,83.13
2018-03-06T02:35:48.448Z,83.13
2018-03-06T02:36:48.444Z,83.13
2018-03-06T02:37:48.449Z,83.18
2018-03-06T02:38:48.454Z,83.00
2018-03-06T02:39:48.446Z,83.47
2018-03-06T02:40:48.452Z,83.28
2018-03-06T02:41:48.459Z,83.09
2018-03-06T02:42:48.465Z,83.28
2018-03-06T02:43:48.455Z,83.18
2018-03-06T02:44:48.477Z,83.18
2018-03-06T02:45:48.462Z,83.47
2018-03-06T02:46:49.280Z,83.47
2018-03-06T02:47:48.477Z,83.09
2018-03-06T02:48:48.485Z,83.37
2018-03-06T02:49:48.471Z,83.28
2018-03-06T02:50:48.470Z,83.37
2018-03-06T02:51:48.467Z,83.47
2018-03-06T02:52:48.471Z,83.28
2018-03-06T02:53:48.481Z,83.66
2018-03-06T02:54:48.471Z,83.37
2018-03-06T02:55:48.481Z,83.75
2018-03-06T02:56:48.482Z,83.56
2018-03-06T02:57:48.491Z,83.85
2018-03-06T02:58:48.516Z,84.04
2018-03-06T02:59:48.487Z,84.23
2018-03-06T03:00:48.487Z,84.23
2018-03-06T03:01:48.548Z,84.32
2018-03-06T03:02:48.504Z,83.94
2018-03-06T03:03:48.484Z,83.85
2018-03-06T03:04:48.496Z,83.66
2018-03-06T03:05:48.489Z,83.85
2018-03-06T03:06:48.488Z,83.85
2018-03-06T03:07:48.491Z,83.28
2018-03-06T03:08:48.496Z,83.47
2018-03-06T03:09:48.501Z,83.37
2018-03-06T03:10:48.499Z,83.28
2018-03-06T03:11:48.496Z,83.09
2018-03-06T03:12:48.502Z,83.09
2018-03-06T03:13:48.498Z,83.37
2018-03-06T03:14:48.507Z,83.85
2018-03-06T03:15:48.500Z,83.85
2018-03-06T03:16:48.510Z,84.04
2018-03-06T03:17:48.505Z,84.51
2018-03-06T03:18:48.506Z,84.61
2018-03-06T03:19:48.520Z,84.42
2018-03-06T03:20:48.515Z,84.61
2018-03-06T03:21:48.514Z,84.61
2018-03-06T03:22:48.508Z,84.32
2018-03-06T03:23:48.510Z,84.51
2018-03-06T03:24:48.516Z,84.61
2018-03-06T03:25:48.515Z,84.42
2018-03-06T03:26:48.521Z,84.51
2018-03-06T03:27:48.515Z,84.61
2018-03-06T03:28:48.517Z,85.36
2018-03-06T03:29:48.520Z,85.17
2018-03-06T03:30:48.516Z,84.80
2018-03-06T03:31:48.538Z,84.42
2018-03-06T03:32:48.531Z,84.42
2018-03-06T03:33:48.532Z,84.99
2018-03-06T03:34:48.522Z,85.36
2018-03-06T03:35:48.524Z,85.74
2018-03-06T03:36:48.533Z,85.55
2018-03-06T03:37:48.529Z,85.08
2018-03-06T03:38:48.544Z,84.99
2018-03-06T03:39:48.533Z,85.08
2018-03-06T03:40:48.537Z,85.46
2018-03-06T03:41:48.532Z,85.17
2018-03-06T03:42:48.538Z,85.08
2018-03-06T03:43:48.538Z,85.17
2018-03-06T03:44:48.534Z,85.46
2018-03-06T03:45:48.536Z,85.55
2018-03-06T03:46:48.537Z,86.03
2018-03-06T03:47:48.540Z,86.41
2018-03-06T03:48:48.544Z,85.93
2018-03-06T03:49:48.543Z,86.03
2018-03-06T03:50:48.547Z,86.60
2018-03-06T03:51:48.569Z,86.22
2018-03-06T03:52:49.286Z,86.50
2018-03-06T03:53:48.554Z,86.41
2018-03-06T03:54:48.559Z,86.31
2018-03-06T03:55:48.556Z,86.41
2018-03-06T03:56:48.557Z,86.41
2018-03-06T03:57:48.556Z,86.79
2018-03-06T03:58:48.555Z,86.50
2018-03-06T03:59:48.560Z,86.60
2018-03-06T04:00:48.568Z,86.60
2018-03-06T04:01:48.569Z,86.41
2018-03-06T04:02:48.564Z,86.60
2018-03-06T04:03:48.556Z,87.54
2018-03-06T04:04:48.561Z,87.54
2018-03-06T04:05:48.560Z,87.35
2018-03-06T04:06:48.570Z,87.35
2018-03-06T04:07:48.566Z,87.54
2018-03-06T04:08:48.577Z,87.73
2018-03-06T04:09:48.564Z,87.54
2018-03-06T04:10:48.566Z,87.64
2018-03-06T04:11:48.578Z,87.40
2018-03-06T04:12:48.570Z,88.45
2018-03-06T04:13:48.586Z,87.98
2018-03-06T04:14:48.569Z,88.17
2018-03-06T04:15:48.576Z,88.92
2018-03-06T04:16:48.577Z,89.39
2018-03-06T04:17:48.579Z,89.96
2018-03-06T04:18:48.581Z,89.77
2018-03-06T04:19:48.582Z,89.87
2018-03-06T04:20:48.630Z,89.77
2018-03-06T04:21:48.586Z,89.96
2018-03-06T04:22:48.585Z,89.96
2018-03-06T04:23:48.580Z,89.77
2018-03-06T04:24:48.591Z,89.68
2018-03-06T04:25:48.601Z,89.77
2018-03-06T04:26:48.599Z,89.96
2018-03-06T04:27:48.586Z,89.30
2018-03-06T04:28:48.597Z,89.20
2018-03-06T04:29:48.589Z,89.77
2018-03-06T04:30:48.599Z,89.49
2018-03-06T04:31:48.594Z,89.68
2018-03-06T04:32:48.602Z,89.58
2018-03-06T04:33:48.590Z,90.53
2018-03-06T04:34:48.597Z,90.53
2018-03-06T04:35:48.598Z,89.58
2018-03-06T04:36:48.609Z,90.06
2018-03-06T04:37:48.603Z,89.58
2018-03-06T04:38:48.605Z,89.68
2018-03-06T04:39:48.639Z,89.58
2018-03-06T04:40:48.604Z,89.39
2018-03-06T04:41:48.611Z,89.68
2018-03-06T04:42:48.616Z,90.15
2018-03-06T04:43:48.613Z,89.58
2018-03-06T04:44:48.606Z,89.30
2018-03-06T04:45:48.610Z,89.87
2018-03-06T04:46:48.609Z,89.25
2018-03-06T04:47:48.611Z,88.78
2018-03-06T04:48:48.619Z,88.68
2018-03-06T04:49:48.619Z,88.40
2018-03-06T04:50:48.624Z,88.17
2018-03-06T04:51:48.640Z,88.21
2018-03-06T04:52:48.620Z,88.54
2018-03-06T04:53:48.616Z,88.78
2018-03-06T04:54:48.618Z,88.59
2018-03-06T04:55:48.619Z,88.45
2018-03-06T04:56:48.621Z,88.59
2018-03-06T04:57:48.711Z,88.40
2018-03-06T04:58:48.635Z,88.30
2018-03-06T04:59:48.621Z,87.98
2018-03-06T05:00:48.630Z,88.02
2018-03-06T05:01:48.637Z,88.02
2018-03-06T05:02:48.629Z,87.98
2018-03-06T05:03:48.629Z,88.40
2018-03-06T05:04:48.631Z,87.73
2018-03-06T05:05:48.632Z,87.07
2018-03-06T05:06:48.663Z,87.59
2018-03-06T05:07:48.638Z,87.45
2018-03-06T05:08:48.629Z,87.50
2018-03-06T05:09:48.638Z,87.31
2018-03-06T05:10:48.642Z,87.35
2018-03-06T05:11:48.644Z,87.54
2018-03-06T05:12:48.652Z,87.31
2018-03-06T05:13:48.641Z,87.40
2018-03-06T05:14:48.641Z,87.31
2018-03-06T05:15:48.645Z,87.40
2018-03-06T05:16:48.645Z,88.26
2018-03-06T05:17:48.746Z,88.26
2018-03-06T05:18:48.672Z,87.88
2018-03-06T05:19:48.643Z,87.78
2018-03-06T05:20:48.655Z,88.26
2018-03-06T05:21:48.644Z,88.02
2018-03-06T05:22:48.658Z,88.26
2018-03-06T05:23:48.671Z,88.54
2018-03-06T05:24:48.659Z,88.45
2018-03-06T05:25:48.660Z,88.54
2018-03-06T05:26:48.718Z,88.54
2018-03-06T05:27:48.657Z,88.73
2018-03-06T05:28:48.658Z,88.78
2018-03-06T05:29:48.656Z,88.54
2018-03-06T05:30:48.654Z,88.17
2018-03-06T05:31:48.664Z,88.64
2018-03-06T05:32:48.660Z,88.54
2018-03-06T05:33:48.667Z,88.73
2018-03-06T05:34:48.666Z,88.54
2018-03-06T05:35:48.660Z,89.11
2018-03-06T05:36:48.674Z,88.92
2018-03-06T05:37:48.669Z,89.01
2018-03-06T05:38:48.698Z,89.01
2018-03-06T05:39:48.669Z,89.01
2018-03-06T05:40:48.685Z,89.11
2018-03-06T05:41:48.686Z,88.92
2018-03-06T05:42:48.690Z,88.64
2018-03-06T05:43:48.670Z,88.26
2018-03-06T05:44:48.673Z,88.35
2018-03-06T05:45:48.709Z,88.30
2018-03-06T05:46:48.688Z,88.17
2018-03-06T05:47:48.677Z,88.49
2018-03-06T05:48:48.674Z,88.45
2018-03-06T05:50:41.667Z,89.63
2018-03-06T05:51:41.616Z,89.82
2018-03-06T05:53:34.632Z,90.58
2018-03-06T05:54:34.578Z,90.25
2018-03-06T05:56:27.538Z,91.33
2018-03-06T05:57:27.520Z,91.33
2018-03-06T05:59:20.492Z,91.33
2018-03-06T06:00:20.466Z,91.24
2018-03-06T06:02:13.458Z,90.86
2018-03-06T06:03:13.430Z,90.29
2018-03-06T06:05:06.392Z,90.48
2018-03-06T06:06:06.389Z,90.39
2018-03-06T06:07:59.366Z,89.63
2018-03-06T06:08:59.342Z,89.72
2018-03-06T06:10:52.308Z,89.91
2018-03-06T06:11:52.302Z,89.06
2018-03-06T06:13:45.285Z,89.15
2018-03-06T06:14:45.256Z,89.25
2018-03-06T06:16:38.225Z,88.78
2018-03-06T06:17:38.211Z,88.87
2018-03-06T06:18:38.225Z,88.78
2018-03-06T06:19:38.227Z,88.40
2018-03-06T06:20:38.224Z,88.59
2018-03-06T06:21:38.228Z,88.30
2018-03-06T06:22:38.225Z,88.11
2018-03-06T06:23:38.232Z,88.11
2018-03-06T06:24:38.273Z,87.54
2018-03-06T06:25:38.227Z,87.26
2018-03-06T06:26:38.249Z,87.35
2018-03-06T06:27:38.228Z,87.73
2018-03-06T06:28:38.239Z,87.54
2018-03-06T06:29:38.229Z,88.11
2018-03-06T06:30:38.233Z,88.59
2018-03-06T06:31:38.234Z,88.30
2018-03-06T06:32:38.241Z,88.40
2018-03-06T06:33:38.238Z,88.54
2018-03-06T06:34:38.236Z,88.63
2018-03-06T06:35:39.195Z,87.77
2018-03-06T06:36:38.241Z,87.40
2018-03-06T06:37:38.244Z,87.49
2018-03-06T06:38:38.240Z,87.40
2018-03-06T06:39:38.247Z,87.21
2018-03-06T06:40:38.246Z,87.40
2018-03-06T06:41:38.246Z,87.12
2018-03-06T06:42:38.291Z,87.77
2018-03-06T06:43:38.256Z,87.40
2018-03-06T06:44:38.261Z,87.12
2018-03-06T06:45:38.303Z,87.40
2018-03-06T06:46:38.380Z,87.59
2018-03-06T06:47:38.292Z,87.49
2018-03-06T06:48:38.260Z,86.93
2018-03-06T06:49:38.263Z,87.02
2018-03-06T06:50:38.261Z,86.11
2018-03-06T06:51:38.268Z,86.68
2018-03-06T06:52:38.264Z,85.83
2018-03-06T06:53:38.279Z,85.93
2018-03-06T06:54:38.274Z,85.64
2018-03-06T06:55:38.278Z,85.74
2018-03-06T06:56:38.285Z,85.64
2018-03-06T06:57:38.277Z,85.26
2018-03-06T06:58:38.288Z,84.88
2018-03-06T06:59:38.283Z,85.26
2018-03-06T07:00:38.311Z,85.36
2018-03-06T07:01:38.286Z,85.07
2018-03-06T07:02:38.295Z,85.17
2018-03-06T07:03:38.293Z,84.88
2018-03-06T07:04:38.289Z,85.36
2018-03-06T07:05:38.291Z,84.69
2018-03-06T07:06:38.311Z,84.50
2018-03-06T07:07:38.300Z,84.69
2018-03-06T07:08:38.300Z,84.69
2018-03-06T07:09:38.334Z,84.50
2018-03-06T07:10:38.305Z,84.03
2018-03-06T07:11:38.306Z,84.03
2018-03-06T07:12:38.312Z,83.74
2018-03-06T07:13:38.323Z,83.46
2018-03-06T07:14:38.313Z,83.22
2018-03-06T07:15:38.313Z,83.27
2018-03-06T07:16:38.315Z,83.36
2018-03-06T07:17:38.323Z,83.50
2018-03-06T07:18:38.328Z,83.12
2018-03-06T07:19:38.327Z,83.22
2018-03-06T07:20:38.328Z,83.03
2018-03-06T07:21:38.325Z,82.74
2018-03-06T07:22:38.330Z,82.17
2018-03-06T07:23:38.341Z,81.98
2018-03-06T07:24:38.339Z,81.55
2018-03-06T07:25:38.349Z,80.69
2018-03-06T07:26:38.348Z,79.65
2018-03-06T07:27:38.369Z,78.89
2018-03-06T07:28:38.347Z,78.74
2018-03-06T07:29:38.362Z,78.02
2018-03-06T07:30:39.214Z,76.03
2018-03-06T07:31:38.361Z,73.88
2018-03-06T07:32:38.374Z,73.11
2018-03-06T07:33:38.384Z,71.91
2018-03-06T07:34:38.382Z,70.33
2018-03-06T07:35:38.382Z,68.56
2018-03-06T07:36:38.370Z,67.32
2018-03-06T07:37:38.395Z,67.00
2018-03-06T07:38:38.444Z,68.49
2018-03-06T07:39:38.410Z,69.98
2018-03-06T07:40:38.393Z,71.02
2018-03-06T07:41:38.400Z,71.97
2018-03-06T07:42:38.453Z,72.51
2018-03-06T07:43:38.402Z,73.18
2018-03-06T07:44:38.416Z,73.84
2018-03-06T07:45:38.418Z,74.22
2018-03-06T07:46:38.414Z,74.03
2018-03-06T07:47:38.425Z,74.88
2018-03-06T07:48:38.425Z,74.69
2018-03-06T07:49:38.433Z,74.41
2018-03-06T07:50:38.446Z,74.16
2018-03-06T07:51:38.446Z,72.39
2018-03-06T07:52:38.452Z,69.95
2018-03-06T07:53:38.449Z,68.65
2018-03-06T07:54:38.451Z,66.56
2018-03-06T07:55:38.463Z,65.26
2018-03-06T07:56:38.467Z,64.40
2018-03-06T07:57:38.508Z,63.92
2018-03-06T07:58:38.485Z,62.52
2018-03-06T07:59:38.487Z,62.24
2018-03-06T08:00:38.532Z,61.41
2018-03-06T08:01:38.502Z,60.75
2018-03-06T08:02:38.508Z,59.89
2018-03-06T08:03:38.501Z,60.08
2018-03-06T08:04:38.526Z,60.36
2018-03-06T08:05:38.511Z,59.41
2018-03-06T08:06:38.517Z,59.06
2018-03-06T08:07:38.534Z,57.72
2018-03-06T08:08:38.530Z,57.28
2018-03-06T08:09:38.558Z,56.63
2018-03-06T08:10:38.551Z,56.16
2018-03-06T08:11:38.576Z,55.42
2018-03-06T08:12:38.561Z,54.27
2018-03-06T08:13:38.563Z,53.51
2018-03-06T08:14:38.574Z,52.96
2018-03-06T08:15:38.577Z,52.87
2018-03-06T08:16:38.588Z,52.29
2018-03-06T08:17:39.219Z,52.29
2018-03-06T08:18:38.609Z,52.75
2018-03-06T08:19:38.617Z,53.03
2018-03-06T08:20:38.637Z,52.58
2018-03-06T08:21:38.714Z,52.84
2018-03-06T08:22:38.656Z,52.75
2018-03-06T08:23:38.667Z,52.75
2018-03-06T08:24:38.686Z,52.55
2018-03-06T08:25:38.671Z,52.65
2018-03-06T08:26:38.732Z,52.77
2018-03-06T08:27:38.708Z,51.91
2018-03-06T08:28:38.743Z,51.81
2018-03-06T08:29:38.724Z,51.34
2018-03-06T08:30:38.762Z,51.36
2018-03-06T08:31:38.743Z,51.62
2018-03-06T08:32:38.790Z,51.62
2018-03-06T08:33:38.754Z,51.72
2018-03-06T08:34:38.768Z,51.62
2018-03-06T08:35:38.779Z,52.01
2018-03-06T08:36:38.790Z,51.53
2018-03-06T08:37:38.823Z,51.46
2018-03-06T08:38:38.812Z,51.07
2018-03-06T08:39:38.830Z,50.52
2018-03-06T08:40:38.844Z,49.95
2018-03-06T08:41:38.880Z,49.95
2018-03-06T08:42:38.856Z,49.19
2018-03-06T08:43:38.880Z,48.71
2018-03-06T08:44:38.888Z,49.19
2018-03-06T08:45:38.908Z,49.29
2018-03-06T08:46:38.907Z,49.09
2018-03-06T08:47:38.928Z,49.19
2018-03-06T08:48:38.945Z,48.71
2018-03-06T08:49:38.954Z,49.09
2018-03-06T08:50:38.964Z,49.48
2018-03-06T08:51:38.980Z,49.00
2018-03-06T08:52:39.009Z,48.64
2018-03-06T08:53:39.004Z,48.54
2018-03-06T08:54:39.048Z,47.42
2018-03-06T08:55:39.049Z,46.77
2018-03-06T08:56:39.053Z,45.90
2018-03-06T08:57:39.071Z,44.87
2018-03-06T08:58:39.124Z,44.78
2018-03-06T08:59:39.095Z,44.47
2018-03-06T09:00:39.125Z,44.56
2018-03-06T09:01:39.114Z,46.00
2018-03-06T09:02:39.142Z,45.79
2018-03-06T09:03:39.205Z,46.17
2018-03-06T09:04:39.166Z,47.32
2018-03-06T09:05:39.179Z,47.13
2018-03-06T09:06:39.208Z,46.58
2018-03-06T09:07:39.211Z,46.10
2018-03-06T09:08:39.222Z,45.14
2018-03-06T09:09:39.240Z,45.14
2018-03-06T09:10:39.261Z,44.68
2018-03-06T09:11:39.270Z,44.68
2018-03-06T09:12:39.284Z,45.07
2018-03-06T09:13:39.304Z,44.11
2018-03-06T09:14:39.308Z,44.42
2018-03-06T09:15:39.333Z,44.03
2018-03-06T09:16:39.348Z,43.84
2018-03-06T09:17:39.361Z,43.74
2018-03-06T09:18:39.375Z,43.55
2018-03-06T09:19:39.427Z,43.73
2018-03-06T09:20:39.410Z,44.59
2018-03-06T09:21:39.445Z,44.20
2018-03-06T09:22:39.440Z,44.13
2018-03-06T09:23:39.449Z,44.42
2018-03-06T09:24:39.464Z,43.84
2018-03-06T09:25:39.477Z,43.84
2018-03-06T09:26:39.493Z,43.74
2018-03-06T09:27:39.506Z,43.55
2018-03-06T09:28:39.525Z,43.27
2018-03-06T09:29:39.533Z,42.90
2018-03-06T09:30:39.548Z,42.71
2018-03-06T09:31:39.592Z,42.88
2018-03-06T09:32:39.579Z,43.15
2018-03-06T09:33:39.593Z,44.01
2018-03-06T09:34:39.620Z,44.59
2018-03-06T09:35:39.632Z,44.85
2018-03-06T09:36:39.646Z,45.04
2018-03-06T09:37:39.661Z,45.33
2018-03-06T09:38:39.673Z,45.69
2018-03-06T09:39:39.691Z,45.90
2018-03-06T09:40:39.701Z,46.10
2018-03-06T09:41:39.710Z,46.39
2018-03-06T09:42:39.733Z,46.36
2018-03-06T09:43:39.743Z,46.94
2018-03-06T09:44:39.763Z,46.94
2018-03-06T09:45:39.779Z,46.46
2018-03-06T09:46:39.799Z,46.96
2018-03-06T09:47:39.811Z,46.39
2018-03-06T09:48:39.848Z,45.62
2018-03-06T09:49:39.868Z,45.43
2018-03-06T09:50:39.861Z,46.00
2018-03-06T09:51:39.863Z,45.90
2018-03-06T09:52:39.875Z,45.81
2018-03-06T09:53:39.894Z,45.43
2018-03-06T09:54:39.902Z,45.43
2018-03-06T09:55:39.920Z,44.59
2018-03-06T09:56:40.084Z,44.56
2018-03-06T09:57:39.960Z,44.97
2018-03-06T09:58:39.965Z,45.64
2018-03-06T09:59:39.994Z,44.87
2018-03-06T10:00:40.004Z,44.20
2018-03-06T10:01:40.014Z,43.94
2018-03-06T10:02:40.047Z,43.74
2018-03-06T10:03:40.051Z,43.46
2018-03-06T10:04:40.074Z,43.19
2018-03-06T10:05:40.080Z,42.71
2018-03-06T10:06:40.098Z,42.54
2018-03-06T10:07:40.112Z,42.35
2018-03-06T10:08:40.140Z,42.35
2018-03-06T10:09:40.142Z,42.73
2018-03-06T10:10:40.197Z,42.23
2018-03-06T10:11:40.194Z,41.94
2018-03-06T10:12:40.196Z,41.75
2018-03-06T10:13:40.216Z,42.23
2018-03-06T10:14:40.234Z,42.90
2018-03-06T10:15:40.255Z,42.98
2018-03-06T10:16:40.269Z,43.27
2018-03-06T10:17:40.290Z,43.27
2018-03-06T10:18:40.575Z,43.17
2018-03-06T10:19:40.322Z,43.36
2018-03-06T10:20:40.334Z,43.74
2018-03-06T10:21:40.383Z,43.91
2018-03-06T10:22:40.365Z,43.94
2018-03-06T10:23:40.394Z,43.74
2018-03-06T10:24:40.412Z,43.94
2018-03-06T10:25:40.424Z,43.74
2018-03-06T10:26:40.439Z,43.84
2018-03-06T10:27:40.466Z,44.11
2018-03-06T10:28:40.470Z,44.78
2018-03-06T10:29:40.496Z,45.52
2018-03-06T10:30:40.517Z,46.00
2018-03-06T10:31:40.548Z,45.90
2018-03-06T10:32:40.561Z,46.36
2018-03-06T10:33:40.563Z,46.84
2018-03-06T10:34:40.582Z,47.15
2018-03-06T10:35:40.599Z,47.15
2018-03-06T10:36:40.613Z,45.90
2018-03-06T10:37:40.640Z,45.93
2018-03-06T10:38:40.647Z,45.26
2018-03-06T10:39:40.671Z,44.59
2018-03-06T10:40:40.691Z,44.56
2018-03-06T10:41:40.700Z,45.04
2018-03-06T10:42:40.720Z,46.17
2018-03-06T10:43:40.735Z,46.10
2018-03-06T10:44:40.757Z,45.89
2018-03-06T10:45:40.839Z,46.00
2018-03-06T10:46:40.790Z,45.62
2018-03-06T10:47:40.816Z,46.19
2018-03-06T10:48:40.816Z,46.39
2018-03-06T10:49:40.873Z,45.64
2018-03-06T10:50:40.853Z,45.07
2018-03-06T10:51:40.866Z,44.97
2018-03-06T10:52:40.893Z,45.26
2018-03-06T10:53:40.903Z,45.43
2018-03-06T10:54:40.924Z,45.62
2018-03-06T10:55:40.932Z,45.81
2018-03-06T10:56:40.951Z,45.90
2018-03-06T10:57:40.963Z,46.00
2018-03-06T10:58:40.987Z,44.87
2018-03-06T10:59:41.004Z,44.78
2018-03-06T11:00:41.018Z,44.11
2018-03-06T11:01:41.031Z,44.20
2018-03-06T11:02:41.048Z,44.01
2018-03-06T11:03:41.074Z,44.13
2018-03-06T11:04:41.084Z,43.84
2018-03-06T11:05:41.098Z,44.42
2018-03-06T11:06:41.118Z,43.27
2018-03-06T11:07:41.139Z,43.36
2018-03-06T11:08:41.140Z,43.07
2018-03-06T11:09:41.168Z,42.50
2018-03-06T11:10:41.177Z,42.69
2018-03-06T11:11:41.191Z,43.17
2018-03-06T11:12:41.205Z,43.27
2018-03-06T11:13:41.220Z,42.60
2018-03-06T11:14:41.256Z,42.88
2018-03-06T11:15:41.255Z,42.81
2018-03-06T11:16:41.275Z,42.33
2018-03-06T11:17:41.347Z,42.23
2018-03-06T11:18:41.306Z,42.23
2018-03-06T11:19:41.322Z,41.85
2018-03-06T11:20:41.348Z,42.25
2018-03-06T11:21:41.358Z,41.77
2018-03-06T11:22:41.376Z,41.94
2018-03-06T11:23:41.409Z,42.54
2018-03-06T11:24:41.597Z,41.96
2018-03-06T11:25:41.465Z,41.94
2018-03-06T11:26:41.604Z,42.52
2018-03-06T11:27:41.446Z,42.52
2018-03-06T11:28:41.463Z,42.81
2018-03-06T11:29:41.485Z,42.81
2018-03-06T11:30:41.490Z,42.81
2018-03-06T11:31:41.511Z,42.90
2018-03-06T11:32:41.536Z,43.29
2018-03-06T11:33:42.312Z,43.38
2018-03-06T11:34:41.567Z,43.29
2018-03-06T11:35:41.591Z,42.79
2018-03-06T11:36:41.580Z,43.17
2018-03-06T11:37:41.615Z,43.29
2018-03-06T11:38:41.611Z,43.29
2018-03-06T11:39:41.653Z,43.57
2018-03-06T11:40:41.642Z,43.29
2018-03-06T11:41:41.662Z,42.81
2018-03-06T11:42:41.671Z,43.07
2018-03-06T11:43:41.688Z,43.74
2018-03-06T11:44:41.701Z,43.36
2018-03-06T11:45:41.734Z,43.84
2018-03-06T11:46:41.741Z,43.94
2018-03-06T11:47:41.800Z,43.19
2018-03-06T11:48:41.773Z,43.19
2018-03-06T11:49:41.772Z,43.38
2018-03-06T11:50:41.826Z,42.79
2018-03-06T11:51:41.816Z,43.07
2018-03-06T11:52:41.830Z,43.55
2018-03-06T11:53:41.836Z,43.46
2018-03-06T11:54:41.841Z,43.94
2018-03-06T11:55:41.857Z,44.13
2018-03-06T11:56:41.884Z,44.51
2018-03-06T11:57:41.966Z,44.97
2018-03-06T11:58:41.897Z,45.07
2018-03-06T11:59:41.926Z,45.64
2018-03-06T12:00:42.224Z,45.74
2018-03-06T12:01:41.949Z,45.74
2018-03-06T12:02:41.960Z,44.87
2018-03-06T12:03:41.999Z,44.59
2018-03-06T12:04:41.985Z,44.20
2018-03-06T12:05:42.014Z,44.59
2018-03-06T12:06:42.000Z,44.68
2018-03-06T12:07:42.022Z,44.59
2018-03-06T12:08:42.023Z,45.93
2018-03-06T12:09:42.039Z,46.03
2018-03-06T12:10:42.056Z,45.83
2018-03-06T12:11:42.061Z,46.03
2018-03-06T12:12:42.071Z,45.74
2018-03-06T12:13:42.085Z,45.64
2018-03-06T12:14:42.106Z,46.03
2018-03-06T12:15:42.110Z,45.83
2018-03-06T12:16:42.115Z,44.97
2018-03-06T12:17:42.133Z,45.36
2018-03-06T12:18:42.149Z,45.36
2018-03-06T12:19:42.155Z,45.26
2018-03-06T12:20:42.174Z,46.12
2018-03-06T12:21:42.182Z,45.62
2018-03-06T12:22:42.190Z,46.29
2018-03-06T12:23:42.203Z,46.77
2018-03-06T12:24:42.213Z,47.06
2018-03-06T12:25:42.233Z,47.06
2018-03-06T12:26:42.257Z,45.83
2018-03-06T12:27:42.235Z,45.45
2018-03-06T12:28:42.722Z,45.54
2018-03-06T12:29:42.266Z,45.74
2018-03-06T12:30:42.266Z,45.45
2018-03-06T12:31:42.275Z,45.54
2018-03-06T12:32:42.314Z,45.74
2018-03-06T12:33:42.305Z,45.64
2018-03-06T12:34:42.315Z,45.74
2018-03-06T12:35:42.320Z,46.12
2018-03-06T12:36:42.348Z,46.03
2018-03-06T12:37:42.336Z,45.52
2018-03-06T12:38:42.354Z,46.10
2018-03-06T12:39:42.361Z,46.00
2018-03-06T12:40:43.340Z,46.48
2018-03-06T12:41:42.375Z,45.62
2018-03-06T12:42:42.398Z,45.83
2018-03-06T12:43:42.401Z,45.90
2018-03-06T12:44:42.415Z,45.90
2018-03-06T12:45:42.410Z,45.72
2018-03-06T12:46:42.430Z,46.19
2018-03-06T12:47:42.438Z,45.90
2018-03-06T12:48:42.445Z,45.81
2018-03-06T12:49:42.450Z,46.00
2018-03-06T12:50:42.468Z,45.90
2018-03-06T12:51:42.473Z,45.90
2018-03-06T12:52:42.489Z,46.39
2018-03-06T12:53:42.498Z,46.29
2018-03-06T12:54:42.529Z,45.81
2018-03-06T12:55:42.510Z,46.29
2018-03-06T12:56:42.524Z,47.25
2018-03-06T12:57:42.534Z,46.96
2018-03-06T12:58:42.538Z,47.34
2018-03-06T12:59:42.545Z,47.25
2018-03-06T13:00:42.552Z,47.06
2018-03-06T13:01:42.565Z,47.06